createdAt,value
2019-05-05T00:01:05.120Z,80.8044
2019-05-05T00:02:08.919Z,80.8044
2019-05-05T00:03:14.738Z,80.8044
2019-05-05T00:04:17.761Z,80.8044
2019-05-05T00:05:20.892Z,80.8044
2019-05-05T00:06:25.075Z,80.8044
2019-05-05T00:07:28.841Z,80.9082
2019-05-05T00:08:31.854Z,80.9082
2019-05-05T00:09:36.830Z,81.0120
2019-05-05T00:10:39.893Z,81.0120
2019-05-05T00:11:44.447Z,81.1157
2019-05-05T00:12:47.934Z,81.2195
2019-05-05T00:13:51.892Z,81.2195
2019-05-05T00:14:55.877Z,81.2195
2019-05-05T00:15:59.550Z,81.2195
2019-05-05T00:17:05.224Z,81.2195
2019-05-05T00:18:08.851Z,81.2195
2019-05-05T00:19:11.848Z,81.2195
2019-05-05T00:20:14.832Z,81.2195
2019-05-05T00:21:17.852Z,81.3232
2019-05-05T00:22:21.166Z,81.3232
2019-05-05T00:23:25.206Z,81.2195
2019-05-05T00:24:28.852Z,81.2195
2019-05-05T00:25:34.309Z,81.1829
2019-05-05T00:26:37.190Z,81.2866
2019-05-05T00:27:40.205Z,81.2866
2019-05-05T00:28:44.822Z,81.2866
2019-05-05T00:29:48.194Z,81.2866
2019-05-05T00:30:51.825Z,81.2866
2019-05-05T00:31:54.844Z,81.3904
2019-05-05T00:32:57.781Z,81.3904
2019-05-05T00:34:01.999Z,81.2866
2019-05-05T00:35:05.774Z,81.2866
2019-05-05T00:36:10.085Z,81.1829
2019-05-05T00:37:15.190Z,81.0791
2019-05-05T00:38:18.847Z,80.9753
2019-05-05T00:39:21.875Z,80.7678
2019-05-05T00:40:25.087Z,80.7678
2019-05-05T00:41:28.838Z,80.5603
2019-05-05T00:42:31.874Z,80.3528
2019-05-05T00:43:34.853Z,80.1453
2019-05-05T00:44:37.779Z,79.8340
2019-05-05T00:45:40.900Z,79.6204
2019-05-05T00:46:44.708Z,79.4128
2019-05-05T00:47:47.921Z,79.1016
2019-05-05T00:48:51.895Z,78.7903
2019-05-05T00:49:56.285Z,78.6865
2019-05-05T00:50:59.893Z,78.6865
2019-05-05T00:52:05.128Z,78.7231
2019-05-05T00:53:08.915Z,78.7231
2019-05-05T00:54:14.738Z,78.8269
2019-05-05T00:55:18.880Z,78.9307
2019-05-05T00:56:21.885Z,79.0344
2019-05-05T00:57:25.868Z,79.2786
2019-05-05T00:58:28.870Z,79.3823
2019-05-05T00:59:32.138Z,79.5898
2019-05-05T01:00:35.850Z,79.6936
2019-05-05T01:01:38.909Z,79.9072
2019-05-05T01:02:44.805Z,80.0476
2019-05-05T01:03:49.173Z,80.1514
2019-05-05T01:04:54.974Z,80.3589
2019-05-05T01:05:58.192Z,80.4626
2019-05-05T01:07:01.195Z,80.5664
2019-05-05T01:08:05.129Z,80.6702
2019-05-05T01:09:08.178Z,80.7739
2019-05-05T01:10:11.188Z,80.7739
2019-05-05T01:11:14.557Z,80.8777
2019-05-05T01:12:17.874Z,80.9814
2019-05-05T01:13:20.863Z,81.0181
2019-05-05T01:14:24.963Z,81.1218
2019-05-05T01:15:28.756Z,81.1218
2019-05-05T01:16:31.843Z,81.2256
2019-05-05T01:17:34.858Z,81.3293
2019-05-05T01:18:37.864Z,81.4331
2019-05-05T01:19:40.825Z,81.4331
2019-05-05T01:20:44.858Z,81.4331
2019-05-05T01:21:49.078Z,81.4331
2019-05-05T01:22:51.825Z,81.4331
2019-05-05T01:23:54.973Z,81.3293
2019-05-05T01:24:58.824Z,81.3293
2019-05-05T01:26:01.829Z,81.3293
2019-05-05T01:27:04.872Z,81.3293
2019-05-05T01:28:07.841Z,81.4331
2019-05-05T01:29:10.911Z,81.4331
2019-05-05T01:30:15.198Z,81.5369
2019-05-05T01:31:18.869Z,81.6467
2019-05-05T01:32:21.796Z,81.6467
2019-05-05T01:33:25.064Z,81.6467
2019-05-05T01:34:28.882Z,81.6467
2019-05-05T01:35:34.239Z,81.7505
2019-05-05T01:36:37.832Z,81.7505
2019-05-05T01:37:40.781Z,81.7505
2019-05-05T01:38:44.683Z,81.8542
2019-05-05T01:39:47.865Z,81.9580
2019-05-05T01:40:50.769Z,81.9580
2019-05-05T01:41:54.350Z,82.0618
2019-05-05T01:42:57.893Z,82.0618
2019-05-05T01:44:01.096Z,82.0618
2019-05-05T01:45:04.865Z,82.2021
2019-05-05T01:46:07.093Z,82.3059
2019-05-05T01:47:10.864Z,82.3059
2019-05-05T01:48:14.258Z,82.4097
2019-05-05T01:49:17.785Z,82.4097
2019-05-05T01:50:21.368Z,82.4097
2019-05-05T01:51:27.091Z,82.5134
2019-05-05T01:52:30.165Z,82.5134
2019-05-05T01:53:34.953Z,82.6172
2019-05-05T01:54:38.200Z,82.6172
2019-05-05T01:55:41.870Z,82.6172
2019-05-05T01:56:44.835Z,82.7209
2019-05-05T01:57:48.767Z,82.7209
2019-05-05T01:58:51.768Z,82.7209
2019-05-05T01:59:55.227Z,82.7209
2019-05-05T02:00:58.722Z,82.7209
2019-05-05T02:02:01.875Z,82.7209
2019-05-05T02:03:04.901Z,82.7209
2019-05-05T02:04:08.814Z,82.6172
2019-05-05T02:05:11.793Z,82.6172
2019-05-05T02:06:14.783Z,82.5134
2019-05-05T02:07:17.792Z,82.5134
2019-05-05T02:08:20.811Z,82.5134
2019-05-05T02:09:25.005Z,82.5134
2019-05-05T02:10:28.914Z,82.6172
2019-05-05T02:11:35.162Z,82.6172
2019-05-05T02:12:38.820Z,82.7209
2019-05-05T02:13:41.796Z,82.7209
2019-05-05T02:14:44.935Z,82.6172
2019-05-05T02:15:48.892Z,82.6172
2019-05-05T02:16:54.617Z,82.6172
2019-05-05T02:17:57.830Z,82.5134
2019-05-05T02:19:00.856Z,82.4768
2019-05-05T02:20:05.256Z,82.3730
2019-05-05T02:21:08.865Z,82.2693
2019-05-05T02:22:12.078Z,82.2693
2019-05-05T02:23:16.026Z,82.1655
2019-05-05T02:24:19.887Z,82.1655
2019-05-05T02:25:22.799Z,82.0618
2019-05-05T02:26:25.851Z,82.0618
2019-05-05T02:27:28.875Z,81.9580
2019-05-05T02:28:32.245Z,81.9580
2019-05-05T02:29:35.812Z,81.9580
2019-05-05T02:30:38.858Z,81.9580
2019-05-05T02:31:41.823Z,81.9580
2019-05-05T02:32:45.326Z,81.9580
2019-05-05T02:33:49.226Z,81.9580
2019-05-05T02:34:55.932Z,81.9580
2019-05-05T02:35:59.842Z,81.9580
2019-05-05T02:37:05.267Z,81.8542
2019-05-05T02:38:08.184Z,81.8542
2019-05-05T02:39:11.198Z,81.8542
2019-05-05T02:40:16.252Z,81.7505
2019-05-05T02:41:19.198Z,81.7505
2019-05-05T02:42:24.779Z,81.7505
2019-05-05T02:43:28.734Z,81.7505
2019-05-05T02:44:31.183Z,81.7505
2019-05-05T02:45:35.295Z,81.7505
2019-05-05T02:46:38.804Z,81.7505
2019-05-05T02:47:40.820Z,81.6467
2019-05-05T02:48:45.039Z,81.7505
2019-05-05T02:49:48.886Z,81.8542
2019-05-05T02:51:00.744Z,81.8542
2019-05-05T02:52:00.828Z,81.8542
2019-05-05T02:53:04.207Z,81.8542
2019-05-05T02:54:07.864Z,81.8542
2019-05-05T02:55:10.879Z,81.9580
2019-05-05T02:56:14.660Z,81.9580
2019-05-05T02:57:17.819Z,81.9580
2019-05-05T02:58:20.798Z,81.9580
2019-05-05T02:59:23.920Z,81.8542
2019-05-05T03:00:27.879Z,81.8542
2019-05-05T03:01:33.902Z,81.8542
2019-05-05T03:02:37.797Z,81.8542
2019-05-05T03:03:43.844Z,81.8542
2019-05-05T03:04:49.961Z,81.7505
2019-05-05T03:05:53.915Z,81.7505
2019-05-05T03:06:57.832Z,81.6467
2019-05-05T03:08:00.843Z,81.6040
2019-05-05T03:09:04.450Z,81.6040
2019-05-05T03:10:07.793Z,81.6467
2019-05-05T03:11:10.799Z,81.6467
2019-05-05T03:12:14.909Z,81.6467
2019-05-05T03:13:20.848Z,81.6467
2019-05-05T03:14:23.669Z,81.6467
2019-05-05T03:15:26.850Z,81.6467
2019-05-05T03:16:30.140Z,81.6467
2019-05-05T03:17:34.097Z,81.6467
2019-05-05T03:18:36.354Z,81.7505
2019-05-05T03:19:39.193Z,81.8542
2019-05-05T03:20:43.587Z,81.8542
2019-05-05T03:21:46.173Z,81.7505
2019-05-05T03:22:49.162Z,81.7505
2019-05-05T03:23:52.179Z,81.7505
2019-05-05T03:24:55.187Z,81.7505
2019-05-05T03:25:58.186Z,81.8542
2019-05-05T03:27:01.175Z,81.8542
2019-05-05T03:28:04.725Z,81.7505
2019-05-05T03:29:07.798Z,81.7505
2019-05-05T03:30:10.791Z,81.7078
2019-05-05T03:31:15.875Z,81.6040
2019-05-05T03:32:19.752Z,81.6040
2019-05-05T03:33:24.987Z,81.6040
2019-05-05T03:34:28.795Z,81.6040
2019-05-05T03:35:31.814Z,81.6040
2019-05-05T03:36:34.942Z,81.6040
2019-05-05T03:37:38.838Z,81.6040
2019-05-05T03:38:41.786Z,81.5002
2019-05-05T03:39:44.829Z,81.5002
2019-05-05T03:40:47.844Z,81.5002
2019-05-05T03:41:50.862Z,81.3965
2019-05-05T03:42:53.894Z,81.3965
2019-05-05T03:43:57.850Z,81.2927
2019-05-05T03:45:00.833Z,81.2927
2019-05-05T03:46:04.449Z,81.2927
2019-05-05T03:47:07.817Z,81.2927
2019-05-05T03:48:10.815Z,81.2927
2019-05-05T03:49:14.149Z,81.2927
2019-05-05T03:50:17.851Z,81.3293
2019-05-05T03:51:24.218Z,81.3965
2019-05-05T03:52:27.850Z,81.5002
2019-05-05T03:53:30.837Z,81.6467
2019-05-05T03:54:34.350Z,81.6040
2019-05-05T03:55:37.844Z,81.6467
2019-05-05T03:56:40.783Z,81.6467
2019-05-05T03:57:44.472Z,81.7505
2019-05-05T03:58:46.858Z,81.8542
2019-05-05T03:59:49.847Z,81.9580
2019-05-05T04:00:54.814Z,81.9580
2019-05-05T04:01:57.797Z,81.9580
2019-05-05T04:03:00.797Z,81.9580
2019-05-05T04:04:04.149Z,81.9580
2019-05-05T04:05:07.813Z,81.9580
2019-05-05T04:06:10.760Z,82.0618
2019-05-05T04:07:14.034Z,81.9580
2019-05-05T04:08:17.824Z,82.0618
2019-05-05T04:09:20.190Z,82.0618
2019-05-05T04:10:24.462Z,82.1655
2019-05-05T04:11:27.192Z,82.1655
2019-05-05T04:12:30.191Z,82.0618
2019-05-05T04:13:33.986Z,82.0618
2019-05-05T04:14:37.759Z,82.1655
2019-05-05T04:15:39.202Z,82.1655
2019-05-05T04:16:43.481Z,82.2693
2019-05-05T04:17:46.714Z,82.4768
2019-05-05T04:18:49.726Z,82.5806
2019-05-05T04:19:54.195Z,82.5806
2019-05-05T04:20:57.776Z,82.5806
2019-05-05T04:22:00.729Z,82.5806
2019-05-05T04:23:03.710Z,82.5806
2019-05-05T04:24:07.838Z,82.5806
2019-05-05T04:25:10.818Z,82.6843
2019-05-05T04:26:14.324Z,82.6843
2019-05-05T04:27:17.802Z,82.6843
2019-05-05T04:28:20.793Z,82.6843
2019-05-05T04:29:24.439Z,82.6843
2019-05-05T04:30:27.828Z,82.6843
2019-05-05T04:31:30.868Z,82.6843
2019-05-05T04:32:34.829Z,82.6843
2019-05-05T04:33:38.891Z,82.6843
2019-05-05T04:34:43.825Z,82.6843
2019-05-05T04:35:48.203Z,82.5806
2019-05-05T04:36:50.910Z,82.4768
2019-05-05T04:37:54.863Z,82.4768
2019-05-05T04:38:57.834Z,82.3730
2019-05-05T04:40:00.943Z,82.2693
2019-05-05T04:41:05.119Z,82.1655
2019-05-05T04:42:08.814Z,82.1655
2019-05-05T04:43:10.993Z,82.1655
2019-05-05T04:44:17.878Z,82.1655
2019-05-05T04:45:23.883Z,82.1289
2019-05-05T04:46:28.135Z,82.0251
2019-05-05T04:47:34.161Z,82.0251
2019-05-05T04:48:37.813Z,81.9214
2019-05-05T04:49:40.887Z,81.9214
2019-05-05T04:50:44.237Z,81.9214
2019-05-05T04:51:49.989Z,82.0251
2019-05-05T04:52:54.177Z,81.9214
2019-05-05T04:53:57.187Z,81.8115
2019-05-05T04:55:00.191Z,81.8115
2019-05-05T04:56:04.184Z,81.8115
2019-05-05T04:57:07.206Z,81.8115
2019-05-05T04:58:10.733Z,81.9214
2019-05-05T04:59:14.419Z,82.0251
2019-05-05T05:00:17.822Z,82.1655
2019-05-05T05:01:28.969Z,82.1289
2019-05-05T05:02:34.122Z,82.2693
2019-05-05T05:03:37.948Z,82.2693
2019-05-05T05:04:41.816Z,82.2327
2019-05-05T05:05:44.815Z,82.2327
2019-05-05T05:06:47.920Z,82.1289
2019-05-05T05:07:51.911Z,82.1289
2019-05-05T05:08:55.844Z,82.1289
2019-05-05T05:09:58.815Z,82.2327
2019-05-05T05:11:03.686Z,82.2327
2019-05-05T05:12:06.973Z,82.2327
2019-05-05T05:13:11.202Z,82.2327
2019-05-05T05:14:14.827Z,82.1289
2019-05-05T05:15:16.942Z,82.0251
2019-05-05T05:16:20.927Z,82.0251
2019-05-05T05:17:26.931Z,82.0251
2019-05-05T05:18:31.189Z,82.0251
2019-05-05T05:19:34.864Z,81.9214
2019-05-05T05:20:37.831Z,81.9214
2019-05-05T05:21:41.068Z,82.0251
2019-05-05T05:22:44.832Z,82.0251
2019-05-05T05:23:48.308Z,82.0251
2019-05-05T05:24:53.953Z,82.0251
2019-05-05T05:25:56.835Z,81.9214
2019-05-05T05:26:59.848Z,81.9214
2019-05-05T05:28:04.161Z,81.9214
2019-05-05T05:29:08.285Z,81.7749
2019-05-05T05:30:11.212Z,81.5674
2019-05-05T05:31:14.214Z,81.5674
2019-05-05T05:32:16.203Z,81.4636
2019-05-05T05:33:19.207Z,81.4636
2019-05-05T05:34:23.868Z,81.3599
2019-05-05T05:35:28.266Z,81.2561
2019-05-05T05:36:31.205Z,81.2561
2019-05-05T05:37:34.855Z,81.1523
2019-05-05T05:38:37.204Z,81.1523
2019-05-05T05:39:40.744Z,81.1523
2019-05-05T05:40:44.430Z,81.1523
2019-05-05T05:41:46.770Z,81.1523
2019-05-05T05:42:49.767Z,81.0486
2019-05-05T05:43:54.144Z,81.0120
2019-05-05T05:44:57.829Z,81.0120
2019-05-05T05:45:59.943Z,81.0486
2019-05-05T05:47:03.905Z,81.0120
2019-05-05T05:48:07.889Z,81.0120
2019-05-05T05:49:13.396Z,81.0120
2019-05-05T05:50:17.184Z,81.0120
2019-05-05T05:51:20.831Z,81.0120
2019-05-05T05:52:24.367Z,81.0120
2019-05-05T05:53:26.954Z,81.0120
2019-05-05T05:54:30.881Z,81.0120
2019-05-05T05:55:34.464Z,80.9082
2019-05-05T05:56:37.930Z,80.8044
2019-05-05T05:57:43.765Z,80.7007
2019-05-05T05:58:47.906Z,80.5969
2019-05-05T05:59:51.856Z,80.3894
2019-05-05T06:00:55.200Z,80.3528
2019-05-05T06:02:09.198Z,80.2490
2019-05-05T06:03:07.133Z,80.1453
2019-05-05T06:04:10.755Z,80.0415
2019-05-05T06:05:14.804Z,80.0415
2019-05-05T06:06:19.267Z,80.0415
2019-05-05T06:07:24.516Z,79.9377
2019-05-05T06:08:30.052Z,80.0415
2019-05-05T06:09:34.431Z,80.1453
2019-05-05T06:10:36.179Z,80.2490
2019-05-05T06:11:38.196Z,80.2490
2019-05-05T06:12:41.187Z,80.2490
2019-05-05T06:13:47.387Z,80.2490
2019-05-05T06:14:53.571Z,80.2490
2019-05-05T06:15:56.841Z,80.1086
2019-05-05T06:16:59.842Z,80.0049
2019-05-05T06:18:04.622Z,80.0049
2019-05-05T06:19:06.919Z,79.9011
2019-05-05T06:20:10.851Z,80.3162
2019-05-05T06:21:13.959Z,80.4199
2019-05-05T06:22:28.082Z,80.4199
2019-05-05T06:23:25.857Z,80.5237
2019-05-05T06:24:27.878Z,80.5908
2019-05-05T06:25:34.000Z,80.4871
2019-05-05T06:27:10.776Z,80.3833
2019-05-05T06:28:14.555Z,80.3833
2019-05-05T06:29:17.178Z,80.2795
2019-05-05T06:30:19.195Z,80.3833
2019-05-05T06:31:24.436Z,80.3833
2019-05-05T06:32:27.178Z,80.2795
2019-05-05T06:33:30.832Z,80.3467
2019-05-05T06:34:33.985Z,80.3467
2019-05-05T06:35:37.776Z,80.3467
2019-05-05T06:36:40.852Z,80.2429
2019-05-05T06:37:46.614Z,80.3467
2019-05-05T06:38:49.925Z,80.5542
2019-05-05T06:39:54.431Z,81.0730
2019-05-05T06:40:57.832Z,81.0730
2019-05-05T06:42:04.364Z,81.2439
2019-05-05T06:43:07.856Z,81.4514
2019-05-05T06:44:11.136Z,81.4514
2019-05-05T06:45:14.426Z,81.5552
2019-05-05T06:46:17.876Z,81.6589
2019-05-05T06:47:21.150Z,81.7200
2019-05-05T06:48:24.831Z,81.8237
2019-05-05T06:49:27.875Z,81.9275
2019-05-05T06:50:31.844Z,82.0984
2019-05-05T06:51:44.067Z,82.4097
2019-05-05T06:52:47.881Z,82.8247
2019-05-05T06:53:51.281Z,83.1360
2019-05-05T06:55:10.774Z,83.6182
2019-05-05T06:56:14.556Z,84.3384
2019-05-05T06:57:17.180Z,84.8572
2019-05-05T06:58:20.190Z,84.9609
2019-05-05T06:59:24.286Z,85.0647
2019-05-05T07:00:27.766Z,85.2722
2019-05-05T07:01:30.871Z,85.3394
2019-05-05T07:02:34.255Z,85.5469
2019-05-05T07:03:37.781Z,85.6506
2019-05-05T07:04:40.918Z,85.8582
2019-05-05T07:05:44.848Z,85.9619
2019-05-05T07:06:54.199Z,86.1694
2019-05-05T07:07:56.931Z,86.4746
2019-05-05T07:09:00.949Z,86.7859
2019-05-05T07:10:04.862Z,86.9568
2019-05-05T07:11:07.955Z,87.0605
2019-05-05T07:12:13.818Z,87.0605
2019-05-05T07:13:17.912Z,86.9568
2019-05-05T07:14:23.606Z,86.9568
2019-05-05T07:15:26.892Z,86.8896
2019-05-05T07:16:30.933Z,86.8530
2019-05-05T07:17:34.920Z,86.7859
2019-05-05T07:18:38.925Z,86.7859
2019-05-05T07:19:44.940Z,87.0972
2019-05-05T07:20:48.909Z,87.3718
2019-05-05T07:21:53.800Z,87.3718
2019-05-05T07:23:02.080Z,87.3718
2019-05-05T07:24:06.264Z,87.5732
2019-05-05T07:25:10.273Z,87.6770
2019-05-05T07:26:14.437Z,87.3718
2019-05-05T07:27:17.187Z,87.3718
2019-05-05T07:28:20.174Z,87.6404
2019-05-05T07:29:23.900Z,87.6404
2019-05-05T07:30:27.191Z,87.7441
2019-05-05T07:31:30.176Z,87.7441
2019-05-05T07:32:33.803Z,87.8479
2019-05-05T07:33:37.830Z,87.8479
2019-05-05T07:34:40.179Z,87.8479
2019-05-05T07:36:06.428Z,87.8052
2019-05-05T07:37:08.916Z,87.9089
2019-05-05T07:38:13.835Z,88.0127
2019-05-05T07:39:17.892Z,88.0127
2019-05-05T07:40:21.626Z,87.9700
2019-05-05T07:41:24.897Z,87.9700
2019-05-05T07:42:28.958Z,88.0737
2019-05-05T07:43:34.499Z,88.0737
2019-05-05T07:44:37.846Z,88.0737
2019-05-05T07:45:40.935Z,88.1775
2019-05-05T07:46:44.879Z,88.2812
2019-05-05T07:47:48.630Z,88.2385
2019-05-05T07:48:51.907Z,88.3423
2019-05-05T07:49:55.850Z,88.4460
2019-05-05T07:51:02.802Z,88.4460
2019-05-05T07:52:07.252Z,88.2812
2019-05-05T07:53:14.424Z,88.4460
2019-05-05T07:54:17.295Z,88.5498
2019-05-05T07:55:19.176Z,88.6536
2019-05-05T07:56:23.766Z,88.7573
2019-05-05T07:57:26.201Z,88.6536
2019-05-05T07:58:29.188Z,88.6536
2019-05-05T07:59:34.026Z,88.5498
2019-05-05T08:00:37.725Z,88.4460
2019-05-05T08:01:43.262Z,88.3057
2019-05-05T08:02:48.900Z,87.9944
2019-05-05T08:03:53.889Z,87.7441
2019-05-05T08:04:57.858Z,87.7441
2019-05-05T08:06:00.882Z,87.7075
2019-05-05T08:07:04.200Z,87.7686
2019-05-05T08:08:07.935Z,87.9333
2019-05-05T08:09:11.903Z,87.8967
2019-05-05T08:10:15.909Z,87.6892
2019-05-05T08:11:19.833Z,87.4390
2019-05-05T08:12:21.842Z,87.0911
2019-05-05T08:13:24.833Z,86.4319
2019-05-05T08:14:27.879Z,85.7788
2019-05-05T08:15:34.389Z,84.9548
2019-05-05T08:17:04.239Z,83.6792
2019-05-05T08:18:07.177Z,83.7463
2019-05-05T08:19:10.187Z,83.0872
2019-05-05T08:20:14.293Z,82.2327
2019-05-05T08:21:17.173Z,82.1289
2019-05-05T08:22:20.171Z,81.3721
2019-05-05T08:23:30.270Z,79.5227
2019-05-05T08:24:33.637Z,78.5645
2019-05-05T08:25:40.195Z,78.0518
2019-05-05T08:26:44.243Z,78.0151
2019-05-05T08:27:47.890Z,77.4658
2019-05-05T08:28:51.193Z,76.7517
2019-05-05T08:29:54.901Z,75.8911
2019-05-05T08:30:58.939Z,75.7935
2019-05-05T08:32:04.429Z,75.6531
2019-05-05T08:33:06.876Z,74.7986
2019-05-05T08:34:10.671Z,73.9807
2019-05-05T08:35:14.780Z,74.1516
2019-05-05T08:36:17.894Z,73.8464
2019-05-05T08:37:23.498Z,73.5352
2019-05-05T08:38:27.058Z,73.2300
2019-05-05T08:39:30.926Z,72.2107
2019-05-05T08:40:34.900Z,71.6980
2019-05-05T08:41:40.005Z,71.8994
2019-05-05T08:42:44.543Z,70.0928
2019-05-05T08:43:47.815Z,70.0256
2019-05-05T08:44:49.930Z,69.7144
2019-05-05T08:46:14.176Z,70.5688
2019-05-05T08:47:17.185Z,71.6248
2019-05-05T08:48:20.187Z,71.3196
2019-05-05T08:49:24.382Z,70.5322
2019-05-05T08:50:27.308Z,70.2576
2019-05-05T08:51:30.198Z,70.5994
2019-05-05T08:52:34.255Z,70.5994
2019-05-05T08:53:44.984Z,70.7336
2019-05-05T08:55:15.777Z,70.8374
2019-05-05T08:56:18.852Z,71.1731
2019-05-05T08:57:24.864Z,71.4844
2019-05-05T08:58:27.857Z,72.0276
2019-05-05T08:59:30.886Z,72.3389
2019-05-05T09:00:34.103Z,72.3389
2019-05-05T09:01:37.885Z,72.3389
2019-05-05T09:02:43.620Z,72.1313
2019-05-05T09:03:46.953Z,72.1313
2019-05-05T09:04:58.690Z,72.3389
2019-05-05T09:06:01.670Z,72.5464
2019-05-05T09:07:04.991Z,72.6501
2019-05-05T09:08:08.186Z,72.7173
2019-05-05T09:09:11.212Z,72.5098
2019-05-05T09:10:14.357Z,72.3755
2019-05-05T09:11:17.185Z,72.1680
2019-05-05T09:12:20.203Z,71.6248
2019-05-05T09:13:24.686Z,70.2576
2019-05-05T09:14:27.785Z,69.5374
2019-05-05T09:15:30.779Z,68.5852
2019-05-05T09:16:33.791Z,67.9382
2019-05-05T09:17:36.742Z,68.0359
2019-05-05T09:18:39.929Z,68.3167
2019-05-05T09:19:44.899Z,67.8040
2019-05-05T09:20:48.781Z,67.0837
2019-05-05T09:21:54.004Z,67.0837
2019-05-05T09:22:57.360Z,66.7786
2019-05-05T09:24:04.694Z,66.1621
2019-05-05T09:25:08.835Z,65.8569
2019-05-05T09:26:26.958Z,65.8569
2019-05-05T09:27:30.824Z,66.7786
2019-05-05T09:28:34.107Z,67.1875
2019-05-05T09:29:37.768Z,67.9382
2019-05-05T09:30:40.195Z,68.3472
2019-05-05T09:31:45.084Z,68.3472
2019-05-05T09:32:49.119Z,68.0725
2019-05-05T09:33:53.661Z,68.3044
2019-05-05T09:34:56.962Z,68.7195
2019-05-05T09:36:01.216Z,68.8538
2019-05-05T09:37:04.175Z,68.1335
2019-05-05T09:38:07.180Z,67.7551
2019-05-05T09:39:10.179Z,68.2678
2019-05-05T09:40:13.874Z,68.5730
2019-05-05T09:41:17.188Z,68.8110
2019-05-05T09:42:20.195Z,68.4021
2019-05-05T09:43:24.111Z,68.0969
2019-05-05T09:44:27.828Z,68.0969
2019-05-05T09:45:30.908Z,67.8894
2019-05-05T09:46:34.814Z,67.8894
2019-05-05T09:47:37.961Z,68.5364
2019-05-05T09:48:43.886Z,68.8477
2019-05-05T09:49:47.876Z,69.1223
2019-05-05T09:50:51.113Z,69.0186
2019-05-05T09:51:54.976Z,68.9148
2019-05-05T09:52:58.895Z,68.8110
2019-05-05T09:54:13.781Z,68.7134
2019-05-05T09:55:11.225Z,68.5364
2019-05-05T09:56:14.876Z,68.3289
2019-05-05T09:57:18.487Z,68.4326
2019-05-05T09:58:20.885Z,68.6401
2019-05-05T09:59:24.730Z,68.9453
2019-05-05T10:00:27.883Z,69.0491
2019-05-05T10:01:33.794Z,68.5364
2019-05-05T10:02:37.874Z,67.6819
2019-05-05T10:03:40.901Z,67.4438
2019-05-05T10:04:44.256Z,67.3462
2019-05-05T10:05:47.904Z,67.5171
2019-05-05T10:06:51.057Z,68.0298
2019-05-05T10:07:54.813Z,68.5425
2019-05-05T10:08:58.203Z,69.2627
2019-05-05T10:10:01.886Z,69.3665
2019-05-05T10:11:05.900Z,69.1589
2019-05-05T10:12:09.220Z,69.2627
2019-05-05T10:13:14.661Z,69.0552
2019-05-05T10:14:18.203Z,68.4387
2019-05-05T10:15:21.236Z,67.0776
2019-05-05T10:16:24.184Z,66.6321
2019-05-05T10:17:33.662Z,65.9912
2019-05-05T10:18:36.750Z,66.0583
2019-05-05T10:19:39.490Z,66.1621
2019-05-05T10:20:42.834Z,66.3696
2019-05-05T10:21:45.186Z,66.8518
2019-05-05T10:22:48.191Z,67.1570
2019-05-05T10:23:51.186Z,67.2607
2019-05-05T10:24:57.228Z,67.3950
2019-05-05T10:26:01.815Z,67.3950
2019-05-05T10:27:05.260Z,67.4927
2019-05-05T10:28:08.195Z,67.9016
2019-05-05T10:29:13.624Z,68.1091
2019-05-05T10:30:15.977Z,68.3167
2019-05-05T10:31:19.998Z,68.3167
2019-05-05T10:32:24.474Z,68.1091
2019-05-05T10:33:27.867Z,67.6697
2019-05-05T10:34:30.203Z,67.1570
2019-05-05T10:35:34.430Z,66.6138
2019-05-05T10:36:37.834Z,66.3757
2019-05-05T10:37:40.823Z,65.6311
2019-05-05T10:38:44.426Z,63.6597
2019-05-05T10:39:47.803Z,62.7380
2019-05-05T10:40:51.010Z,62.6343
2019-05-05T10:41:56.180Z,63.2202
2019-05-05T10:43:36.814Z,63.6292
2019-05-05T10:44:39.197Z,63.8611
2019-05-05T10:45:43.894Z,64.4775
2019-05-05T10:46:47.193Z,64.9902
2019-05-05T10:47:50.174Z,62.7686
2019-05-05T10:48:53.820Z,62.2864
2019-05-05T10:49:56.802Z,62.7258
2019-05-05T10:50:59.776Z,62.7258
2019-05-05T10:52:03.784Z,63.0615
2019-05-05T10:53:07.899Z,63.5742
2019-05-05T10:54:11.134Z,63.3667
2019-05-05T10:55:14.856Z,63.1958
2019-05-05T10:56:16.875Z,63.5010
2019-05-05T10:57:20.073Z,63.8367
2019-05-05T10:58:24.403Z,63.7329
2019-05-05T10:59:27.810Z,63.4277
2019-05-05T11:00:31.035Z,63.4583
2019-05-05T11:01:34.846Z,63.3545
2019-05-05T11:02:37.841Z,63.2507
2019-05-05T11:03:40.771Z,63.6902
2019-05-05T11:04:44.293Z,63.0737
2019-05-05T11:05:47.871Z,62.5610
2019-05-05T11:06:49.822Z,62.4878
2019-05-05T11:07:53.762Z,62.3901
2019-05-05T11:08:56.807Z,62.3108
2019-05-05T11:09:59.819Z,62.9272
2019-05-05T11:11:04.202Z,63.2385
2019-05-05T11:12:37.937Z,63.4399
2019-05-05T11:13:42.800Z,63.6780
2019-05-05T11:14:48.185Z,63.6780
2019-05-05T11:15:51.190Z,63.7817
2019-05-05T11:16:54.619Z,64.0869
2019-05-05T11:17:57.236Z,63.8855
2019-05-05T11:19:00.179Z,63.3667
2019-05-05T11:20:03.828Z,63.0615
2019-05-05T11:21:06.800Z,62.6526
2019-05-05T11:22:09.750Z,62.5488
2019-05-05T11:23:14.836Z,61.7249
2019-05-05T11:24:18.803Z,61.5234
2019-05-05T11:25:21.913Z,62.2375
2019-05-05T11:26:25.864Z,62.8540
2019-05-05T11:27:28.827Z,63.2385
2019-05-05T11:28:33.771Z,63.6475
2019-05-05T11:29:37.857Z,63.9587
2019-05-05T11:30:42.031Z,64.2639
2019-05-05T11:31:45.897Z,64.4714
2019-05-05T11:32:49.884Z,64.5691
2019-05-05T11:33:54.165Z,64.6729
2019-05-05T11:34:57.896Z,64.7461
2019-05-05T11:36:04.476Z,64.8499
2019-05-05T11:37:07.868Z,65.0574
2019-05-05T11:38:10.868Z,65.0574
2019-05-05T11:39:14.794Z,64.8193
2019-05-05T11:40:18.860Z,64.3066
2019-05-05T11:41:20.872Z,63.6597
2019-05-05T11:42:42.826Z,63.0493
2019-05-05T11:43:45.922Z,62.6099
2019-05-05T11:44:50.066Z,61.8896
2019-05-05T11:45:54.484Z,61.6577
2019-05-05T11:46:57.784Z,62.0667
2019-05-05T11:48:00.745Z,61.7310
2019-05-05T11:49:04.930Z,61.3953
2019-05-05T11:50:08.396Z,61.5723
2019-05-05T11:51:49.964Z,61.7737
2019-05-05T11:53:24.950Z,61.2061
2019-05-05T11:54:28.211Z,61.0779
2019-05-05T11:55:31.187Z,61.6333
2019-05-05T11:56:34.217Z,60.3760
2019-05-05T11:57:40.238Z,60.1196
2019-05-05T11:58:44.342Z,59.1431
2019-05-05T11:59:47.175Z,56.9824
2019-05-05T12:00:54.506Z,56.7505
2019-05-05T12:01:57.807Z,56.2134
2019-05-05T12:03:00.202Z,56.5979
2019-05-05T12:04:04.053Z,56.8726
2019-05-05T12:05:16.882Z,56.8726
2019-05-05T12:06:44.135Z,57.7637
2019-05-05T12:08:10.761Z,58.3679
2019-05-05T12:09:14.103Z,58.9783
2019-05-05T12:10:17.207Z,58.2703
2019-05-05T12:11:20.797Z,58.1970
2019-05-05T12:12:23.763Z,56.5979
2019-05-05T12:13:27.030Z,55.2002
2019-05-05T12:14:30.781Z,54.2053
2019-05-05T12:15:34.201Z,54.1321
2019-05-05T12:16:37.899Z,53.6499
2019-05-05T12:17:43.755Z,54.0527
2019-05-05T12:18:47.805Z,53.8757
2019-05-05T12:19:51.154Z,52.5513
2019-05-05T12:20:54.892Z,53.3936
2019-05-05T12:21:58.096Z,53.5950
2019-05-05T12:23:01.909Z,52.5513
2019-05-05T12:24:05.888Z,52.5513
2019-05-05T12:25:22.545Z,52.1240
2019-05-05T12:26:17.815Z,51.5869
2019-05-05T12:27:20.927Z,51.2817
2019-05-05T12:28:24.856Z,51.0803
2019-05-05T12:29:27.851Z,51.2817
2019-05-05T12:30:30.871Z,50.2441
2019-05-05T12:31:33.974Z,50.5493
2019-05-05T12:32:46.747Z,51.2085
2019-05-05T12:33:48.764Z,50.3723
2019-05-05T12:34:53.657Z,49.8413
2019-05-05T12:35:56.186Z,49.4934
2019-05-05T12:36:59.835Z,46.7285
2019-05-05T12:38:02.265Z,46.9360
2019-05-05T12:39:05.818Z,46.8323
2019-05-05T12:40:08.192Z,48.2300
2019-05-05T12:41:11.898Z,49.4995
2019-05-05T12:42:14.244Z,47.8577
2019-05-05T12:43:18.375Z,46.9238
2019-05-05T12:44:23.507Z,47.2046
2019-05-05T12:45:28.263Z,47.6074
2019-05-05T12:46:31.175Z,47.1069
2019-05-05T12:47:34.860Z,45.8130
2019-05-05T12:48:37.187Z,44.1162
2019-05-05T12:49:40.182Z,44.7388
2019-05-05T12:50:44.307Z,43.9331
2019-05-05T12:51:47.192Z,44.1345
2019-05-05T12:52:50.168Z,44.8425
2019-05-05T12:53:53.941Z,43.6279
2019-05-05T12:54:57.727Z,43.9514
2019-05-05T12:56:00.845Z,45.1660
2019-05-05T12:57:04.403Z,47.7234
2019-05-05T12:58:07.819Z,48.0469